Time;durP1;ratioP1;P1;durP2;ratioP2;P2;SDS_P1;SDS_P2;PMS_P1;PMS_P2;Temp;Humidity;BMP_temperature;BMP_pressure;BME280_temperature;BME280_humidity;BME280_pressure;Samples;Min_cycle;Max_cycle;Signal;HPM_P1;HPM_P2
2022/01/13 00:02:14;;;;;;;10.80;4.10;;;;;;;-0.12;32.71;101005.46;1722503;82;20844;-70
2022/01/13 00:04:41;;;;;;;10.48;4.25;;;;;;;-0.12;32.80;101005.92;1730761;81;20966;-62
2022/01/13 00:07:09;;;;;;;7.85;2.92;;;;;;;0.08;32.67;101011.10;1730179;81;21699;-61
2022/01/13 00:09:36;;;;;;;9.25;4.05;;;;;;;-0.01;32.64;101001.77;1730922;82;20977;-60
2022/01/13 00:12:08;;;;;;;10.05;4.47;;;;;;;0.07;32.53;100994.88;1731519;82;21150;-60
2022/01/13 00:19:57;;;;;;;10.18;3.60;;;;;;;-0.02;32.57;100999.31;1730925;82;21081;-62
2022/01/13 00:22:18;;;;;;;9.93;3.85;;;;;;;-0.11;32.56;100991.75;1711714;82;20935;-73
2022/01/13 00:24:34;;;;;;;11.22;4.70;;;;;;;-0.15;32.61;100997.98;1727335;82;21147;-72
2022/01/13 00:27:09;;;;;;;8.90;4.37;;;;;;;-0.20;32.67;100988.92;1730385;82;21037;-60
2022/01/13 00:29:31;;;;;;;8.33;3.72;;;;;;;-0.32;32.82;100987.48;1729815;82;21483;-61
2022/01/13 00:31:59;;;;;;;9.58;4.22;;;;;;;-0.30;32.74;100981.01;1730123;82;21492;-68
2022/01/13 00:34:29;;;;;;;10.98;5.03;;;;;;;-0.47;33.00;100978.66;1731142;81;21032;-70
2022/01/13 00:36:58;;;;;;;10.43;3.65;;;;;;;-0.46;32.89;100970.86;1729197;82;21080;-63
2022/01/13 00:39:24;;;;;;;10.10;4.37;;;;;;;-0.57;33.15;100983.50;1730317;82;20922;-61
2022/01/13 00:41:51;;;;;;;10.03;4.20;;;;;;;-0.51;33.03;100977.55;1730728;82;20934;-63
2022/01/13 00:44:20;;;;;;;8.00;4.08;;;;;;;-0.35;32.84;100967.18;1730173;82;21310;-61
2022/01/13 00:46:55;;;;;;;8.83;4.30;;;;;;;-0.33;32.76;100970.48;1698289;82;20859;-61
2022/01/13 00:49:18;;;;;;;8.78;3.65;;;;;;;-0.45;32.85;100966.59;1720642;82;21755;-61
2022/01/13 00:51:46;;;;;;;13.35;5.03;;;;;;;-0.36;32.75;100970.67;1730195;82;20914;-63
2022/01/13 00:54:13;;;;;;;12.07;4.15;;;;;;;-0.35;32.69;100962.06;1719518;82;20990;-62
2022/01/13 00:56:39;;;;;;;12.10;4.67;;;;;;;-0.39;32.77;100959.33;1730344;82;21006;-62
2022/01/13 00:59:12;;;;;;;8.65;3.30;;;;;;;-0.28;32.64;100955.64;1729628;82;21850;-61
2022/01/13 01:01:43;;;;;;;10.60;5.20;;;;;;;-0.18;32.50;100951.23;1730287;82;21238;-62
2022/01/13 01:04:09;;;;;;;7.22;2.95;;;;;;;-0.19;32.40;100947.86;1730244;81;20997;-62
2022/01/13 01:06:44;;;;;;;9.75;3.70;;;;;;;-0.16;32.33;100942.98;1730958;82;21033;-72
2022/01/13 01:09:15;;;;;;;8.15;3.42;;;;;;;-0.39;32.55;100946.98;1730907;82;21622;-62
2022/01/13 01:11:43;;;;;;;9.05;3.67;;;;;;;-0.23;32.47;100943.81;1730273;82;21522;-73
2022/01/13 01:14:13;;;;;;;8.03;3.62;;;;;;;-0.36;32.56;100939.11;1730372;82;21017;-62
2022/01/13 01:16:40;;;;;;;7.80;3.25;;;;;;;-0.50;32.80;100941.23;1729487;82;20978;-64
2022/01/13 01:19:11;;;;;;;8.45;3.83;;;;;;;-0.48;32.66;100937.32;1729432;82;22243;-61
2022/01/13 01:24:42;;;;;;;5.87;2.77;;;;;;;-0.48;32.72;100938.14;1729681;82;21588;-62
2022/01/13 01:31:55;;;;;;;5.58;2.80;;;;;;;-0.34;32.41;100944.94;1730519;82;21049;-63
2022/01/13 01:34:40;;;;;;;6.30;3.00;;;;;;;-0.40;32.48;100947.44;1691210;82;21583;-63
2022/01/13 01:36:56;;;;;;;6.62;2.80;;;;;;;-0.31;32.37;100943.48;1692279;82;21009;-73
2022/01/13 01:39:25;;;;;;;6.33;2.42;;;;;;;-0.20;32.17;100947.47;1686534;84;21205;-62
2022/01/13 01:41:54;;;;;;;9.03;3.25;;;;;;;-0.19;32.16;100945.30;1694442;83;21031;-61
2022/01/13 01:44:29;;;;;;;5.92;2.67;;;;;;;-0.20;32.06;100949.21;1693884;84;21585;-64
2022/01/13 01:46:55;;;;;;;6.60;2.55;;;;;;;-0.64;32.39;100945.13;1692394;82;21082;-61
2022/01/13 01:49:25;;;;;;;6.12;2.70;;;;;;;-0.78;32.67;100944.22;1689222;84;21134;-62
2022/01/13 01:51:59;;;;;;;10.05;2.25;;;;;;;-0.91;32.95;100950.16;1691708;82;20993;-74
2022/01/13 01:54:28;;;;;;;7.47;2.92;;;;;;;-0.93;32.90;100955.37;1694578;84;21777;-62
2022/01/13 01:56:56;;;;;;;8.28;3.02;;;;;;;-0.84;32.84;100955.28;1694063;84;21580;-62
2022/01/13 01:59:27;;;;;;;6.78;2.10;;;;;;;-0.82;32.71;100961.95;1694719;84;21135;-60
2022/01/13 02:01:52;;;;;;;9.43;3.17;;;;;;;-0.77;32.75;100957.38;1694057;82;21040;-62
2022/01/13 02:04:22;;;;;;;7.83;2.87;;;;;;;-0.91;32.93;100955.28;1696496;82;21166;-72
2022/01/13 02:06:48;;;;;;;8.38;4.00;;;;;;;-1.13;33.21;100955.30;1700981;84;22164;-62
2022/01/13 02:09:17;;;;;;;8.60;3.40;;;;;;;-1.16;33.34;100952.91;1702477;84;21114;-61
2022/01/13 02:11:51;;;;;;;7.78;2.98;;;;;;;-1.10;33.29;100956.40;1703467;82;21091;-67
2022/01/13 02:17:08;;;;;;;11.03;3.47;;;;;;;-1.16;33.29;100961.86;1703895;82;21088;-61
2022/01/13 02:19:40;;;;;;;9.03;3.67;;;;;;;-0.91;33.16;100967.64;1699992;84;21521;-62
2022/01/13 02:22:07;;;;;;;16.07;7.42;;;;;;;-0.84;33.05;100970.17;1698617;83;21522;-63
2022/01/13 02:24:34;;;;;;;21.10;8.30;;;;;;;-0.83;32.99;100975.68;1702499;84;20968;-61
2022/01/13 02:27:02;;;;;;;14.53;6.65;;;;;;;-0.63;32.88;100977.48;1700343;84;21153;-62
2022/01/13 02:29:29;;;;;;;12.88;5.33;;;;;;;-0.83;33.10;100971.84;1703409;82;21206;-70
2022/01/13 02:31:56;;;;;;;12.05;4.35;;;;;;;-0.64;32.96;100973.30;1699346;84;21754;-70
2022/01/13 02:34:29;;;;;;;10.20;3.85;;;;;;;-0.31;32.55;100966.07;1704019;82;21427;-63
2022/01/13 02:36:59;;;;;;;10.18;4.25;;;;;;;-0.43;32.55;100977.55;1700111;84;20999;-63
2022/01/13 02:39:30;;;;;;;8.88;3.50;;;;;;;-0.65;32.80;100982.69;1699246;84;21088;-66
2022/01/13 02:41:57;;;;;;;9.80;3.85;;;;;;;-0.69;33.01;100981.69;1700465;84;21200;-64
2022/01/13 02:44:24;;;;;;;9.65;4.53;;;;;;;-0.71;33.10;100977.95;1695237;82;21138;-63
2022/01/13 02:49:21;;;;;;;10.68;5.10;;;;;;;-0.55;33.02;100983.78;1699687;84;21039;-67
2022/01/13 02:51:51;;;;;;;10.50;3.80;;;;;;;-0.67;33.20;100978.59;1705070;82;21509;-73
2022/01/13 02:54:18;;;;;;;8.18;3.42;;;;;;;-0.72;33.36;100986.98;1694385;82;21147;-61
2022/01/13 02:56:45;;;;;;;8.38;3.70;;;;;;;-0.59;33.20;100984.06;1706375;82;21502;-61
2022/01/13 02:59:14;;;;;;;6.33;2.85;;;;;;;-0.88;33.43;100982.79;1702250;82;21036;-72
2022/01/13 03:01:40;;;;;;;7.03;2.62;;;;;;;-0.67;33.43;100970.91;1699849;83;21540;-62
2022/01/13 03:04:09;;;;;;;10.15;3.25;;;;;;;-0.27;32.99;100972.64;1703342;82;21087;-63
2022/01/13 03:06:39;;;;;;;5.60;2.33;;;;;;;-0.36;33.05;100969.85;1692496;83;22375;-60
2022/01/13 03:09:09;;;;;;;7.53;3.20;;;;;;;-0.48;33.42;100966.77;1660627;84;21673;-67
2022/01/13 03:11:38;;;;;;;9.15;3.85;;;;;;;-0.16;32.95;100966.03;1674239;84;21590;-62
2022/01/13 03:14:11;;;;;;;7.67;3.10;;;;;;;-0.12;33.03;100970.05;1660355;84;21060;-64
2022/01/13 03:16:39;;;;;;;11.12;4.10;;;;;;;-0.12;33.04;100970.05;1673914;85;21141;-60
2022/01/13 03:19:07;;;;;;;13.28;4.42;;;;;;;-0.03;33.01;100971.58;1661074;84;21252;-71
2022/01/13 03:21:37;;;;;;;9.98;3.22;;;;;;;-0.18;33.19;100971.73;1673951;84;21112;-61
2022/01/13 03:24:08;;;;;;;6.60;2.72;;;;;;;0.15;33.00;100976.44;1660864;84;21577;-64
2022/01/13 03:26:36;;;;;;;8.13;2.95;;;;;;;0.16;32.80;100971.23;1673531;84;21065;-61
2022/01/13 03:31:39;;;;;;;8.83;3.40;;;;;;;0.12;32.96;100974.92;1674039;84;21173;-60
2022/01/13 03:34:06;;;;;;;8.25;3.00;;;;;;;0.13;32.95;100970.61;1660973;85;20971;-71
2022/01/13 03:36:35;;;;;;;5.62;2.70;;;;;;;0.23;32.83;100973.77;1673894;85;21024;-62
2022/01/13 03:39:05;;;;;;;8.73;3.47;;;;;;;0.37;32.62;100974.60;1660801;85;21425;-71
2022/01/13 03:41:32;;;;;;;7.87;2.67;;;;;;;0.26;32.71;100973.19;1675461;84;21072;-61
2022/01/13 03:44:06;;;;;;;7.37;3.27;;;;;;;0.47;32.51;100976.94;1661196;84;22014;-68
2022/01/13 03:46:37;;;;;;;8.60;2.67;;;;;;;0.64;32.23;100967.66;1673759;84;21076;-61
2022/01/13 03:49:07;;;;;;;8.65;2.58;;;;;;;0.55;32.03;100970.84;1660052;84;21056;-64
2022/01/13 03:52:02;;;;;;;9.00;3.00;;;;;;;0.55;31.99;100969.56;1675499;84;21112;-62
2022/01/13 03:54:44;;;;;;;8.38;2.20;;;;;;;0.52;31.93;100976.17;1661158;85;21505;-61
2022/01/13 03:57:42;;;;;;;6.62;2.40;;;;;;;0.46;31.88;100976.59;1670204;84;21816;-65
2022/01/13 04:00:57;;;;;;;7.90;3.15;;;;;;;0.25;32.14;100968.53;1661159;84;21007;31
2022/01/13 04:03:24;;;;;;;8.05;3.40;;;;;;;0.20;32.31;100963.70;1660986;85;21031;-62
2022/01/13 04:06:13;;;;;;;9.63;3.42;;;;;;;0.34;32.26;100961.98;1668462;85;21070;-61
2022/01/13 04:08:40;;;;;;;8.38;3.37;;;;;;;0.37;32.30;100956.19;1665426;85;21122;-61
2022/01/13 04:11:14;;;;;;;8.85;3.10;;;;;;;0.50;32.39;100966.95;1667957;85;21147;-62
2022/01/13 04:14:00;;;;;;;8.05;3.22;;;;;;;0.46;32.50;100965.05;1641375;85;21876;-64
2022/01/13 04:16:27;;;;;;;7.50;3.50;;;;;;;0.43;32.60;100966.52;1630070;87;21074;-62
2022/01/13 04:19:00;;;;;;;7.05;3.40;;;;;;;0.60;32.57;100970.06;1667530;85;21599;-67
2022/01/13 04:21:25;;;;;;;10.20;3.15;;;;;;;0.71;32.45;100966.80;1667738;85;21093;-62
2022/01/13 04:23:56;;;;;;;6.97;2.40;;;;;;;0.71;32.48;100979.16;1666515;85;23108;-61
2022/01/13 04:26:27;;;;;;;8.45;3.15;;;;;;;0.73;32.17;100977.33;1669215;85;21094;-62
2022/01/13 04:29:02;;;;;;;7.12;2.98;;;;;;;0.88;32.01;100984.94;1666229;85;21513;-63
2022/01/13 04:31:23;;;;;;;6.28;2.12;;;;;;;0.85;31.92;100982.57;1666665;85;21110;-61
2022/01/13 04:33:49;;;;;;;5.97;2.85;;;;;;;0.58;32.16;100982.19;1668753;85;21150;-62
2022/01/13 04:36:16;;;;;;;11.57;3.45;;;;;;;0.58;32.12;100986.50;1668767;85;21169;-61
2022/01/13 04:38:42;;;;;;;6.97;2.60;;;;;;;0.50;32.22;100985.73;1668815;85;21046;-74
2022/01/13 04:41:09;;;;;;;9.75;3.62;;;;;;;0.41;32.07;100982.45;1661518;85;20932;-65
2022/01/13 04:43:36;;;;;;;7.15;2.80;;;;;;;0.50;32.16;100971.62;1668686;85;21121;-61
2022/01/13 04:46:04;;;;;;;6.87;2.72;;;;;;;0.43;32.25;100981.91;1668777;85;21091;-62
2022/01/13 04:48:31;;;;;;;5.75;2.30;;;;;;;0.28;32.28;100977.78;1668727;85;21179;-62
2022/01/13 04:50:57;;;;;;;6.50;2.62;;;;;;;0.23;32.17;100975.05;1661239;85;20932;-63
2022/01/13 04:53:26;;;;;;;8.85;3.37;;;;;;;0.26;32.02;100975.76;1668023;85;21573;-61
2022/01/13 04:55:57;;;;;;;6.10;3.17;;;;;;;0.29;31.75;100979.41;1668809;85;21200;-61
2022/01/13 04:58:23;;;;;;;8.60;2.50;;;;;;;0.10;31.74;100988.74;1668247;85;21069;-61
2022/01/13 05:00:50;;;;;;;7.75;3.35;;;;;;;0.11;31.75;100991.19;1672055;82;21853;-73
2022/01/13 05:03:17;;;;;;;9.15;3.15;;;;;;;0.20;31.63;100989.80;1686558;84;21583;-61
2022/01/13 05:05:47;;;;;;;5.67;2.08;;;;;;;0.19;31.53;100990.27;1697968;83;21070;-62
2022/01/13 05:08:15;;;;;;;8.18;3.17;;;;;;;-0.13;31.81;100996.14;1686349;83;21496;-62
2022/01/13 05:10:42;;;;;;;6.33;3.12;;;;;;;-0.16;31.80;101005.75;1697085;83;21520;-67
2022/01/13 05:13:10;;;;;;;7.10;2.75;;;;;;;-0.38;32.04;100997.28;1697057;83;21153;-73
2022/01/13 05:15:41;;;;;;;6.67;2.75;;;;;;;-0.35;32.10;100997.09;1697703;83;21647;-62
2022/01/13 05:23:18;;;;;;;6.85;2.02;;;;;;;-0.25;31.86;100996.44;1643219;83;21671;-64
2022/01/13 05:25:46;;;;;;;6.45;2.17;;;;;;;-0.41;31.91;101000.88;1684365;83;21174;-63
2022/01/13 05:28:16;;;;;;;7.37;2.10;;;;;;;-0.39;31.84;101004.61;1683549;83;20904;-77
2022/01/13 05:30:44;;;;;;;5.90;2.20;;;;;;;-0.81;32.22;101000.71;1675528;83;20975;-73
2022/01/13 05:33:12;;;;;;;7.35;2.75;;;;;;;-0.76;32.32;101014.51;1686512;83;21055;-68
2022/01/13 05:35:42;;;;;;;5.45;2.37;;;;;;;-0.76;32.28;101020.48;1680864;83;21153;-62
2022/01/13 05:38:09;;;;;;;6.83;2.00;;;;;;;-0.68;32.13;101021.73;1680295;84;21154;-61
2022/01/13 05:40:37;;;;;;;4.97;2.47;;;;;;;-0.58;32.04;101022.38;1679700;84;21097;-61
2022/01/13 05:43:04;;;;;;;6.45;2.42;;;;;;;-0.98;32.39;101025.22;1682123;83;21066;-70
2022/01/13 05:45:33;;;;;;;8.40;3.00;;;;;;;-0.95;32.41;101019.89;1679183;83;21141;-60
2022/01/13 05:48:01;;;;;;;6.83;2.55;;;;;;;-1.02;32.43;101028.87;1683084;83;21098;-60
2022/01/13 05:50:28;;;;;;;7.58;2.42;;;;;;;-1.02;32.45;101033.52;1683644;83;21168;-71
2022/01/13 05:52:55;;;;;;;5.40;1.92;;;;;;;-1.06;32.45;101031.21;1680165;83;20994;-67
2022/01/13 05:55:24;;;;;;;7.62;3.00;;;;;;;-1.09;32.55;101027.11;1691571;83;21011;-61
2022/01/13 05:57:51;;;;;;;8.15;3.55;;;;;;;-1.00;32.37;101021.91;1685968;83;21066;-62
2022/01/13 06:00:20;;;;;;;8.50;2.87;;;;;;;-0.96;32.32;101027.21;1684424;83;21021;-64
2022/01/13 06:02:47;;;;;;;9.95;3.90;;;;;;;-0.79;32.22;101027.52;1677251;83;21234;-62
2022/01/13 06:05:18;;;;;;;7.03;2.77;;;;;;;-0.74;32.01;101027.59;1679221;84;21016;-64
2022/01/13 06:07:45;;;;;;;7.12;3.30;;;;;;;-0.77;31.89;101027.77;1679576;84;21063;-64
2022/01/13 06:10:19;;;;;;;7.50;3.42;;;;;;;-0.79;32.04;101026.23;1678858;84;21012;-62
2022/01/13 06:12:48;;;;;;;8.73;3.33;;;;;;;-0.74;32.01;101024.22;1680662;85;21088;-61
2022/01/13 06:15:18;;;;;;;9.18;3.40;;;;;;;-0.64;32.26;101025.32;1678568;84;21807;-62
2022/01/13 06:17:45;;;;;;;8.28;3.60;;;;;;;-0.23;32.59;101023.70;1679171;84;21025;-61
2022/01/13 06:20:13;;;;;;;8.35;3.20;;;;;;;0.23;32.37;101022.48;1679655;85;21000;-64
2022/01/13 06:22:42;;;;;;;8.43;2.90;;;;;;;0.79;32.04;101018.43;1677117;85;21035;-71
2022/01/13 06:25:10;;;;;;;9.43;3.42;;;;;;;0.95;31.85;101019.08;1678378;85;21593;-64
2022/01/13 06:27:37;;;;;;;8.38;3.30;;;;;;;1.20;31.52;101025.94;1684669;85;21170;-64
2022/01/13 06:30:07;;;;;;;6.40;2.90;;;;;;;1.49;31.34;101025.72;1684033;85;20944;-64
2022/01/13 06:32:34;;;;;;;6.92;3.17;;;;;;;1.86;31.05;101010.31;1684811;84;21045;-71
2022/01/13 06:35:03;;;;;;;8.18;3.12;;;;;;;2.59;30.61;101008.05;1683107;84;21055;-67
2022/01/13 06:37:30;;;;;;;5.92;2.70;;;;;;;2.93;30.16;101011.52;1686676;85;21916;-64
2022/01/13 06:39:56;;;;;;;8.30;3.05;;;;;;;3.15;29.79;101012.83;1686486;84;21167;-63
2022/01/13 06:42:26;;;;;;;7.30;3.47;;;;;;;3.27;29.52;101007.20;1684920;85;21014;-63
2022/01/13 06:44:52;;;;;;;8.23;4.17;;;;;;;3.32;29.52;100996.06;1682561;84;21530;-63
2022/01/13 06:47:18;;;;;;;15.98;5.53;;;;;;;3.23;29.32;100997.26;1685005;85;22526;-63
2022/01/13 06:49:45;;;;;;;7.75;3.40;;;;;;;3.03;29.20;100997.02;1684285;84;21013;-63
2022/01/13 06:52:14;;;;;;;8.08;3.40;;;;;;;2.86;28.91;100990.55;1684362;84;21080;-66
2022/01/13 06:54:41;;;;;;;8.15;3.50;;;;;;;2.77;28.98;100980.13;1684152;84;21444;-64
2022/01/13 06:57:08;;;;;;;6.33;3.22;;;;;;;2.76;28.94;100991.34;1684092;85;21102;-59
2022/01/13 06:59:35;;;;;;;6.97;2.80;;;;;;;2.85;29.13;100994.53;1684745;85;21689;-60
2022/01/13 07:02:03;;;;;;;7.35;3.27;;;;;;;2.89;29.28;100986.92;1685804;84;21082;-61
2022/01/13 07:04:34;;;;;;;6.33;3.47;;;;;;;3.29;29.06;100992.91;1693879;84;20924;-68
2022/01/13 07:07:00;;;;;;;7.97;3.75;;;;;;;3.70;29.43;100979.37;1694133;84;21129;-62
2022/01/13 07:09:30;;;;;;;7.78;3.60;;;;;;;4.27;29.62;100976.95;1696067;83;21134;-63
2022/01/13 07:11:56;;;;;;;7.70;3.60;;;;;;;4.71;29.11;100966.52;1689869;83;21024;-63
2022/01/13 07:14:23;;;;;;;7.33;3.55;;;;;;;4.83;28.16;100961.63;1696259;84;20953;-62
2022/01/13 07:16:49;;;;;;;6.33;2.92;;;;;;;4.69;27.89;100964.53;1694933;83;21223;-62
2022/01/13 07:19:16;;;;;;;6.70;3.33;;;;;;;4.55;27.90;100962.63;1689867;84;21503;-61
2022/01/13 07:21:44;;;;;;;8.45;3.62;;;;;;;4.01;27.66;100968.73;1685927;83;21898;-63
2022/01/13 07:24:11;;;;;;;7.95;3.60;;;;;;;3.66;27.80;100970.25;1686515;83;21094;-63
2022/01/13 07:26:38;;;;;;;6.37;3.42;;;;;;;3.14;28.07;100964.83;1692122;83;21538;-69
2022/01/13 07:29:07;;;;;;;7.58;3.50;;;;;;;2.91;28.43;100961.86;1692442;84;21193;-62
2022/01/13 07:31:37;;;;;;;8.68;3.30;;;;;;;2.97;28.69;100974.29;1684709;83;20916;-63
2022/01/13 07:34:06;;;;;;;7.03;3.20;;;;;;;2.84;28.68;100972.27;1694265;84;21072;-64
2022/01/13 07:36:37;;;;;;;7.03;3.27;;;;;;;2.90;29.08;100974.40;1688527;83;21082;-72
2022/01/13 07:39:05;;;;;;;6.42;3.35;;;;;;;3.13;29.13;100971.36;1661555;86;22520;-63
2022/01/13 07:41:37;;;;;;;7.72;3.10;;;;;;;3.38;29.28;100976.75;1697583;82;21570;-64
2022/01/13 07:44:05;;;;;;;7.60;3.10;;;;;;;3.39;29.15;100978.38;1698979;84;21011;-63
2022/01/13 07:46:32;;;;;;;8.95;3.98;;;;;;;3.42;29.04;100978.16;1686026;83;21138;-71
2022/01/13 07:48:59;;;;;;;7.10;3.00;;;;;;;3.40;29.45;100978.25;1684145;84;21129;-64
2022/01/13 07:51:26;;;;;;;7.03;3.27;;;;;;;3.69;29.41;100973.88;1682545;84;21186;-65
2022/01/13 07:53:52;;;;;;;6.95;3.15;;;;;;;4.21;28.78;100971.50;1687146;84;21156;-65
2022/01/13 07:56:22;;;;;;;7.10;3.15;;;;;;;4.53;28.51;100980.00;1685676;84;21418;-69
2022/01/13 07:58:49;;;;;;;9.03;3.40;;;;;;;4.98;28.39;100977.13;1688056;84;21010;-66
2022/01/13 08:01:15;;;;;;;6.92;3.20;;;;;;;4.86;28.26;100966.54;1684015;83;21109;-66
2022/01/13 08:03:42;;;;;;;6.33;3.12;;;;;;;4.14;28.49;100967.30;1688970;83;21138;-63
2022/01/13 08:06:08;;;;;;;6.67;3.12;;;;;;;3.68;28.51;100977.41;1685184;84;21166;-63
2022/01/13 08:08:38;;;;;;;6.60;2.67;;;;;;;3.17;28.93;100980.02;1690154;84;21108;-69
2022/01/13 08:11:09;;;;;;;6.35;3.15;;;;;;;2.91;29.50;100978.12;1636809;86;21130;-62
2022/01/13 08:13:37;;;;;;;7.35;2.92;;;;;;;3.06;29.84;100978.73;1660464;85;21004;-64
2022/01/13 08:16:07;;;;;;;9.10;3.22;;;;;;;3.45;29.64;100965.03;1691310;83;21097;-63
2022/01/13 08:21:23;;;;;;;7.35;3.65;;;;;;;3.58;28.83;100956.67;1690416;83;21058;-63
2022/01/13 08:23:52;;;;;;;7.78;3.90;;;;;;;3.14;28.76;100958.83;1693251;84;21019;-64
2022/01/13 08:26:22;;;;;;;7.22;4.08;;;;;;;2.99;29.21;100947.12;1695022;83;21024;-71
2022/01/13 08:28:51;;;;;;;8.05;3.62;;;;;;;2.81;29.46;100944.20;1696447;83;21181;-63
2022/01/13 08:31:18;;;;;;;8.78;3.52;;;;;;;2.74;29.87;100938.69;1695358;84;21167;-64
2022/01/13 08:33:45;;;;;;;6.72;3.25;;;;;;;2.74;29.87;100938.69;1691269;84;21040;-65
2022/01/13 08:36:11;;;;;;;5.35;2.47;;;;;;;3.21;29.97;100930.38;1688263;84;21124;-71
2022/01/13 08:38:38;;;;;;;7.62;3.35;;;;;;;3.53;29.52;100930.45;1685366;83;21119;-65
2022/01/13 08:41:04;;;;;;;8.33;3.80;;;;;;;3.48;29.23;100929.97;1696867;83;21462;-66
2022/01/13 08:43:33;;;;;;;8.60;2.90;;;;;;;3.48;29.23;100929.97;1691666;84;21177;-65
2022/01/13 08:45:59;;;;;;;8.15;3.50;;;;;;;3.48;28.70;100927.39;1690797;83;21580;-63
2022/01/13 08:48:30;;;;;;;6.78;3.25;;;;;;;2.99;29.09;100925.23;1693824;84;20998;-69
2022/01/13 08:50:58;;;;;;;8.08;3.52;;;;;;;3.09;29.14;100926.17;1691537;84;21519;-63
2022/01/13 08:53:25;;;;;;;6.37;3.27;;;;;;;3.09;29.48;100950.17;1690223;83;21078;-64
2022/01/13 08:55:54;;;;;;;7.00;3.30;;;;;;;2.85;29.05;100912.14;1694080;83;21991;-63
2022/01/13 08:58:22;;;;;;;8.20;3.37;;;;;;;2.85;29.05;100912.14;1628826;86;21037;-71
2022/01/13 09:00:50;;;;;;;7.70;3.25;;;;;;;2.72;29.36;100910.12;1690493;83;21049;-65
2022/01/13 09:03:16;;;;;;;6.37;3.02;;;;;;;2.56;29.69;100904.85;1689665;83;21122;-64
2022/01/13 09:05:52;;;;;;;7.08;2.85;;;;;;;2.67;29.82;100911.77;1694010;83;21090;-63
2022/01/13 09:08:18;;;;;;;6.80;3.08;;;;;;;2.81;29.68;100898.67;1682492;84;21525;-67
2022/01/13 09:10:48;;;;;;;7.28;2.70;;;;;;;3.03;29.64;100893.99;1688248;82;20967;-66
2022/01/13 09:13:17;;;;;;;7.17;4.08;;;;;;;3.29;30.02;100892.41;1686194;83;21075;-65
2022/01/13 09:15:56;;;;;;;7.25;3.50;;;;;;;3.29;30.02;100892.41;1686897;84;21100;-62
2022/01/13 09:18:30;;;;;;;8.20;3.72;;;;;;;3.72;30.05;100901.45;1685830;82;21598;-67
2022/01/13 09:20:47;;;;;;;9.48;3.47;;;;;;;3.98;29.57;100890.33;1685589;83;21572;-62
2022/01/13 09:23:15;;;;;;;8.03;3.42;;;;;;;4.33;29.63;100880.98;1687655;83;21011;-68
2022/01/13 09:25:45;;;;;;;7.75;3.50;;;;;;;4.64;29.82;100870.67;1686776;83;21116;-66
2022/01/13 09:28:11;;;;;;;8.40;3.62;;;;;;;4.84;29.13;100881.88;1683551;82;21073;-65
2022/01/13 09:30:39;;;;;;;6.15;3.45;;;;;;;4.57;28.94;100876.00;1690665;84;21007;-65
2022/01/13 09:33:06;;;;;;;6.95;3.35;;;;;;;4.55;28.88;100875.33;1691241;83;22116;-65
2022/01/13 09:35:33;;;;;;;6.20;2.83;;;;;;;4.58;28.80;100864.27;1681496;84;21557;-64
2022/01/13 09:38:03;;;;;;;6.47;3.17;;;;;;;4.54;28.41;100859.47;1689817;83;21056;-65
2022/01/13 09:40:29;;;;;;;7.75;3.70;;;;;;;4.31;28.24;100872.53;1687821;83;21522;-68
2022/01/13 09:42:56;;;;;;;7.40;3.15;;;;;;;3.98;28.40;100866.27;1687214;83;20935;-66
2022/01/13 09:45:23;;;;;;;8.90;3.27;;;;;;;3.78;28.80;100866.12;1699510;83;22271;-65
2022/01/13 09:47:50;;;;;;;8.65;3.10;;;;;;;3.51;29.20;100867.87;1686337;84;21034;-64
2022/01/13 09:50:21;;;;;;;7.20;3.00;;;;;;;3.52;29.45;100854.04;1686598;83;21023;-68
2022/01/13 09:52:47;;;;;;;6.12;2.75;;;;;;;3.49;29.64;100838.03;1687535;83;21086;-66
2022/01/13 09:55:15;;;;;;;6.28;2.75;;;;;;;3.97;29.56;100849.98;1682677;82;21001;-63
2022/01/13 09:57:45;;;;;;;7.62;3.05;;;;;;;4.08;29.99;100847.81;1688829;82;21232;-64
2022/01/13 10:00:14;;;;;;;5.85;3.33;;;;;;;4.43;29.50;100856.97;1685297;83;21000;-64
2022/01/13 10:02:45;;;;;;;6.25;2.87;;;;;;;4.88;28.94;100854.84;1676405;83;20970;-63
2022/01/13 10:05:12;;;;;;;7.47;3.20;;;;;;;5.15;28.35;100856.00;1662802;85;21044;-64
2022/01/13 10:07:42;;;;;;;6.50;3.22;;;;;;;5.20;27.90;100845.62;1665116;84;21078;-63
2022/01/13 10:10:16;;;;;;;7.00;3.17;;;;;;;5.08;27.48;100846.21;1663376;85;21905;-64
2022/01/13 10:12:44;;;;;;;6.17;3.35;;;;;;;4.86;27.67;100854.98;1661516;84;21046;-66
2022/01/13 10:17:52;;;;;;;6.40;3.15;;;;;;;3.25;29.08;100838.20;1612161;85;21060;-63
2022/01/13 10:20:21;;;;;;;6.45;3.10;;;;;;;3.25;29.08;100838.20;1662788;85;20901;-71
2022/01/13 10:22:48;;;;;;;7.45;3.22;;;;;;;2.58;29.74;100836.08;1662120;84;22568;-61
2022/01/13 10:25:31;;;;;;;6.58;2.65;;;;;;;2.77;29.88;100825.66;1661322;85;20956;-61
2022/01/13 10:28:23;;;;;;;5.08;2.37;;;;;;;2.63;29.98;100821.56;1662675;84;21016;-62
2022/01/13 10:30:52;;;;;;;7.75;2.70;;;;;;;2.76;30.17;100824.00;1664030;85;21534;-63
2022/01/13 10:33:25;;;;;;;7.97;2.98;;;;;;;2.65;30.22;100823.09;1668250;85;20984;-63
2022/01/13 10:36:07;;;;;;;5.97;2.50;;;;;;;2.68;30.19;100814.30;1665693;84;21138;-67
2022/01/13 10:38:56;;;;;;;5.62;2.50;;;;;;;2.23;30.75;100812.19;1664004;85;21336;-64
2022/01/13 10:41:36;;;;;;;6.28;2.80;;;;;;;2.19;31.08;100821.88;1663660;85;21074;-65
2022/01/13 10:44:23;;;;;;;9.68;3.55;;;;;;;2.32;31.37;100811.03;1662321;85;21126;-63
2022/01/13 10:47:01;;;;;;;4.75;2.25;;;;;;;2.82;31.13;100814.05;1662539;85;20975;-64
2022/01/13 10:49:38;;;;;;;5.62;2.37;;;;;;;3.25;30.69;100800.84;1664410;84;21593;-64
2022/01/13 10:52:26;;;;;;;6.17;2.95;;;;;;;3.20;30.76;100805.55;1661115;85;21087;-63
2022/01/13 10:55:12;;;;;;;6.55;2.58;;;;;;;3.36;30.58;100798.23;1660101;85;21643;-65
2022/01/13 10:57:43;;;;;;;6.42;3.33;;;;;;;3.61;30.43;100794.03;1659710;85;21176;-66
2022/01/13 11:00:21;;;;;;;9.40;4.83;;;;;;;3.72;30.27;100788.48;1662382;85;27227;-64
2022/01/13 11:03:04;;;;;;;7.95;3.05;;;;;;;3.94;30.17;100787.50;1665321;84;21167;-65
2022/01/13 11:05:46;;;;;;;7.65;3.08;;;;;;;4.37;30.10;100795.89;1660962;85;22010;-65
2022/01/13 11:08:26;;;;;;;5.37;2.70;;;;;;;4.66;29.60;100782.73;1663438;85;21031;-64
2022/01/13 11:10:55;;;;;;;7.00;3.15;;;;;;;4.84;29.68;100779.37;1635874;85;20987;-64
2022/01/13 11:13:23;;;;;;;7.37;3.00;;;;;;;4.73;29.15;100783.84;1656536;85;21040;-67
2022/01/13 11:15:55;;;;;;;5.62;2.85;;;;;;;4.73;29.15;100783.84;1662567;85;22144;-65
2022/01/13 11:18:22;;;;;;;8.00;2.52;;;;;;;4.85;29.00;100768.59;1665677;85;21070;-65
2022/01/13 11:20:49;;;;;;;6.50;2.85;;;;;;;4.83;29.07;100774.36;1669676;85;21028;-65
2022/01/13 11:23:21;;;;;;;8.03;2.98;;;;;;;4.49;29.09;100774.67;1668739;85;21585;-67
2022/01/13 11:25:55;;;;;;;6.40;3.25;;;;;;;4.52;29.06;100776.99;1663766;85;21113;-69
2022/01/13 11:28:23;;;;;;;6.50;3.25;;;;;;;4.62;28.70;100760.22;1661001;85;21833;-71
2022/01/13 11:30:51;;;;;;;5.87;2.83;;;;;;;4.47;28.78;100762.83;1657322;84;20993;-65
2022/01/13 11:33:19;;;;;;;9.65;3.33;;;;;;;4.40;28.95;100765.14;1664080;84;22180;-67
2022/01/13 11:35:55;;;;;;;6.83;3.30;;;;;;;3.99;29.29;100775.06;1661283;85;21058;-73
2022/01/13 11:38:19;;;;;;;6.42;2.62;;;;;;;3.95;29.28;100760.63;1661567;85;21129;-65
2022/01/13 11:40:48;;;;;;;8.18;2.87;;;;;;;3.54;30.03;100756.80;1669480;85;21565;-70
2022/01/13 11:43:27;;;;;;;5.65;2.55;;;;;;;3.54;30.03;100756.80;1660963;85;21423;-66
2022/01/13 11:45:55;;;;;;;5.90;2.62;;;;;;;3.54;30.14;100756.80;1668781;84;22451;-66
2022/01/13 11:48:25;;;;;;;6.72;3.15;;;;;;;3.53;29.97;100755.65;1664977;85;21141;-68
2022/01/13 11:51:01;;;;;;;6.65;3.27;;;;;;;3.37;30.23;100754.31;1670578;84;21023;-66
2022/01/13 11:53:31;;;;;;;9.00;3.70;;;;;;;3.15;30.79;100764.71;1671218;85;21222;-72
2022/01/13 11:56:02;;;;;;;7.62;3.05;;;;;;;3.21;30.94;100754.37;1663566;85;20982;-65
2022/01/13 11:58:43;;;;;;;6.53;3.33;;;;;;;3.02;31.31;100748.11;1669829;85;21409;-68
2022/01/13 12:01:31;;;;;;;7.75;3.67;;;;;;;3.14;31.26;100747.16;1667020;85;21149;-64
2022/01/13 12:04:00;;;;;;;10.75;2.83;;;;;;;3.23;31.18;100740.91;1676423;83;21162;-67
2022/01/13 12:06:49;;;;;;;9.20;3.17;;;;;;;3.18;31.30;100734.81;1686705;83;21800;-64
2022/01/13 12:09:33;;;;;;;8.08;3.20;;;;;;;3.13;31.39;100719.73;1686645;83;21548;-63
2022/01/13 12:12:03;;;;;;;11.78;6.85;;;;;;;3.30;31.12;100729.17;1684442;83;21095;-64
2022/01/13 12:14:42;;;;;;;8.13;3.95;;;;;;;2.99;31.04;100722.59;1683130;83;21094;-66